sensor_id;sensor_type;location;lat;lon;timestamp;P1;durP1;ratioP1;P2;durP2;ratioP2
19869;SDS011;10097;50.862;4.696;2023-04-09T00:02:10;25.03;;;15.33;;
19869;SDS011;10097;50.862;4.696;2023-04-09T00:04:36;28.50;;;15.10;;
19869;SDS011;10097;50.862;4.696;2023-04-09T00:07:02;25.27;;;14.73;;
19869;SDS011;10097;50.862;4.696;2023-04-09T00:09:27;26.77;;;15.37;;
19869;SDS011;10097;50.862;4.696;2023-04-09T00:11:53;27.03;;;15.90;;
19869;SDS011;10097;50.862;4.696;2023-04-09T00:14:20;26.40;;;15.07;;
19869;SDS011;10097;50.862;4.696;2023-04-09T00:16:45;26.40;;;15.10;;
19869;SDS011;10097;50.862;4.696;2023-04-09T00:19:11;26.80;;;15.77;;
19869;SDS011;10097;50.862;4.696;2023-04-09T00:21:37;26.83;;;13.80;;
19869;SDS011;10097;50.862;4.696;2023-04-09T00:24:03;25.50;;;14.70;;
19869;SDS011;10097;50.862;4.696;2023-04-09T00:26:29;27.67;;;15.40;;
19869;SDS011;10097;50.862;4.696;2023-04-09T00:28:55;25.93;;;14.50;;
19869;SDS011;10097;50.862;4.696;2023-04-09T00:31:21;26.57;;;14.73;;
19869;SDS011;10097;50.862;4.696;2023-04-09T00:33:46;26.60;;;15.43;;
19869;SDS011;10097;50.862;4.696;2023-04-09T00:36:12;30.13;;;15.60;;
19869;SDS011;10097;50.862;4.696;2023-04-09T00:38:37;29.37;;;15.27;;
19869;SDS011;10097;50.862;4.696;2023-04-09T00:41:03;26.70;;;15.83;;
19869;SDS011;10097;50.862;4.696;2023-04-09T00:43:29;26.53;;;15.47;;
19869;SDS011;10097;50.862;4.696;2023-04-09T00:45:55;25.20;;;15.30;;
19869;SDS011;10097;50.862;4.696;2023-04-09T00:48:20;29.17;;;16.40;;
19869;SDS011;10097;50.862;4.696;2023-04-09T00:50:46;23.93;;;15.10;;
19869;SDS011;10097;50.862;4.696;2023-04-09T00:53:12;25.67;;;15.20;;
19869;SDS011;10097;50.862;4.696;2023-04-09T00:55:39;27.60;;;15.97;;
19869;SDS011;10097;50.862;4.696;2023-04-09T00:58:05;26.60;;;16.00;;
19869;SDS011;10097;50.862;4.696;2023-04-09T01:00:31;28.13;;;15.83;;
19869;SDS011;10097;50.862;4.696;2023-04-09T01:02:57;27.03;;;15.93;;
19869;SDS011;10097;50.862;4.696;2023-04-09T01:05:25;27.50;;;16.37;;
19869;SDS011;10097;50.862;4.696;2023-04-09T01:08:09;25.27;;;14.30;;
19869;SDS011;10097;50.862;4.696;2023-04-09T01:13:48;26.93;;;16.00;;
19869;SDS011;10097;50.862;4.696;2023-04-09T01:16:28;27.07;;;16.20;;
19869;SDS011;10097;50.862;4.696;2023-04-09T01:19:08;29.87;;;15.37;;
19869;SDS011;10097;50.862;4.696;2023-04-09T01:21:54;29.33;;;15.93;;
19869;SDS011;10097;50.862;4.696;2023-04-09T01:27:07;26.50;;;15.40;;
19869;SDS011;10097;50.862;4.696;2023-04-09T01:29:34;29.03;;;15.87;;
19869;SDS011;10097;50.862;4.696;2023-04-09T01:32:10;27.33;;;15.50;;
19869;SDS011;10097;50.862;4.696;2023-04-09T01:34:37;28.67;;;16.27;;
19869;SDS011;10097;50.862;4.696;2023-04-09T01:37:05;25.50;;;15.73;;
19869;SDS011;10097;50.862;4.696;2023-04-09T01:39:32;27.20;;;15.50;;
19869;SDS011;10097;50.862;4.696;2023-04-09T01:41:59;26.80;;;15.63;;
19869;SDS011;10097;50.862;4.696;2023-04-09T01:44:26;32.90;;;16.33;;
19869;SDS011;10097;50.862;4.696;2023-04-09T01:46:52;29.77;;;16.47;;
19869;SDS011;10097;50.862;4.696;2023-04-09T01:49:19;29.23;;;16.80;;
19869;SDS011;10097;50.862;4.696;2023-04-09T01:51:46;29.63;;;16.60;;
19869;SDS011;10097;50.862;4.696;2023-04-09T01:54:12;29.13;;;15.90;;
19869;SDS011;10097;50.862;4.696;2023-04-09T01:56:45;28.67;;;16.00;;
19869;SDS011;10097;50.862;4.696;2023-04-09T01:59:12;27.80;;;16.30;;
19869;SDS011;10097;50.862;4.696;2023-04-09T02:02:00;25.47;;;15.07;;
19869;SDS011;10097;50.862;4.696;2023-04-09T02:04:40;25.73;;;15.27;;
19869;SDS011;10097;50.862;4.696;2023-04-09T02:10:11;28.27;;;16.33;;
19869;SDS011;10097;50.862;4.696;2023-04-09T02:12:39;30.80;;;16.83;;
19869;SDS011;10097;50.862;4.696;2023-04-09T02:15:09;31.13;;;17.60;;
19869;SDS011;10097;50.862;4.696;2023-04-09T02:17:36;30.17;;;16.53;;
19869;SDS011;10097;50.862;4.696;2023-04-09T02:20:02;28.30;;;16.43;;
19869;SDS011;10097;50.862;4.696;2023-04-09T02:22:27;30.20;;;17.33;;
19869;SDS011;10097;50.862;4.696;2023-04-09T02:24:54;29.53;;;16.80;;
19869;SDS011;10097;50.862;4.696;2023-04-09T02:27:19;30.67;;;16.17;;
19869;SDS011;10097;50.862;4.696;2023-04-09T02:29:45;30.90;;;17.40;;
19869;SDS011;10097;50.862;4.696;2023-04-09T02:32:11;30.67;;;17.60;;
19869;SDS011;10097;50.862;4.696;2023-04-09T02:34:37;31.00;;;16.73;;
19869;SDS011;10097;50.862;4.696;2023-04-09T02:37:02;33.33;;;17.20;;
19869;SDS011;10097;50.862;4.696;2023-04-09T02:39:28;27.67;;;16.37;;
19869;SDS011;10097;50.862;4.696;2023-04-09T02:41:53;28.60;;;15.97;;
19869;SDS011;10097;50.862;4.696;2023-04-09T02:44:20;29.03;;;17.53;;
19869;SDS011;10097;50.862;4.696;2023-04-09T02:46:45;27.90;;;16.50;;
19869;SDS011;10097;50.862;4.696;2023-04-09T02:49:12;30.20;;;17.07;;
19869;SDS011;10097;50.862;4.696;2023-04-09T02:51:38;33.10;;;18.43;;
19869;SDS011;10097;50.862;4.696;2023-04-09T02:54:04;30.43;;;18.73;;
19869;SDS011;10097;50.862;4.696;2023-04-09T02:56:29;29.03;;;17.50;;
19869;SDS011;10097;50.862;4.696;2023-04-09T02:58:55;33.47;;;18.30;;
19869;SDS011;10097;50.862;4.696;2023-04-09T03:01:21;32.67;;;17.70;;
19869;SDS011;10097;50.862;4.696;2023-04-09T03:03:46;29.63;;;16.93;;
19869;SDS011;10097;50.862;4.696;2023-04-09T03:06:12;32.97;;;18.27;;
19869;SDS011;10097;50.862;4.696;2023-04-09T03:08:38;31.97;;;18.43;;
19869;SDS011;10097;50.862;4.696;2023-04-09T03:11:03;33.33;;;18.73;;
19869;SDS011;10097;50.862;4.696;2023-04-09T03:13:29;31.43;;;18.73;;
19869;SDS011;10097;50.862;4.696;2023-04-09T03:15:55;33.03;;;18.50;;
19869;SDS011;10097;50.862;4.696;2023-04-09T03:18:20;32.40;;;18.83;;
19869;SDS011;10097;50.862;4.696;2023-04-09T03:20:46;34.50;;;19.33;;
19869;SDS011;10097;50.862;4.696;2023-04-09T03:23:12;34.77;;;20.13;;
19869;SDS011;10097;50.862;4.696;2023-04-09T03:25:38;33.97;;;19.43;;
19869;SDS011;10097;50.862;4.696;2023-04-09T03:28:05;35.73;;;20.30;;
19869;SDS011;10097;50.862;4.696;2023-04-09T03:30:30;33.10;;;18.93;;
19869;SDS011;10097;50.862;4.696;2023-04-09T03:32:56;34.93;;;19.70;;
19869;SDS011;10097;50.862;4.696;2023-04-09T03:35:23;38.43;;;20.80;;
19869;SDS011;10097;50.862;4.696;2023-04-09T03:37:49;33.47;;;19.47;;
19869;SDS011;10097;50.862;4.696;2023-04-09T03:40:14;32.47;;;18.63;;
19869;SDS011;10097;50.862;4.696;2023-04-09T03:42:43;35.17;;;20.57;;
19869;SDS011;10097;50.862;4.696;2023-04-09T03:45:09;40.33;;;21.80;;
19869;SDS011;10097;50.862;4.696;2023-04-09T03:47:35;38.13;;;20.73;;
19869;SDS011;10097;50.862;4.696;2023-04-09T03:50:00;35.70;;;20.33;;
19869;SDS011;10097;50.862;4.696;2023-04-09T03:52:26;37.17;;;20.20;;
19869;SDS011;10097;50.862;4.696;2023-04-09T03:54:52;36.33;;;19.97;;
19869;SDS011;10097;50.862;4.696;2023-04-09T03:57:18;36.23;;;20.47;;
19869;SDS011;10097;50.862;4.696;2023-04-09T03:59:43;38.50;;;21.67;;
19869;SDS011;10097;50.862;4.696;2023-04-09T04:02:09;36.97;;;20.27;;
19869;SDS011;10097;50.862;4.696;2023-04-09T04:04:35;37.20;;;21.13;;
19869;SDS011;10097;50.862;4.696;2023-04-09T04:07:01;38.30;;;21.07;;
19869;SDS011;10097;50.862;4.696;2023-04-09T04:09:27;43.30;;;21.40;;
19869;SDS011;10097;50.862;4.696;2023-04-09T04:11:53;37.20;;;19.93;;
19869;SDS011;10097;50.862;4.696;2023-04-09T04:14:22;36.83;;;21.13;;
19869;SDS011;10097;50.862;4.696;2023-04-09T04:16:48;42.63;;;21.03;;
19869;SDS011;10097;50.862;4.696;2023-04-09T04:19:14;38.30;;;19.63;;
19869;SDS011;10097;50.862;4.696;2023-04-09T04:21:40;40.77;;;21.63;;
19869;SDS011;10097;50.862;4.696;2023-04-09T04:24:05;39.87;;;21.30;;
19869;SDS011;10097;50.862;4.696;2023-04-09T04:26:31;37.57;;;21.47;;
19869;SDS011;10097;50.862;4.696;2023-04-09T04:28:57;40.13;;;20.90;;
19869;SDS011;10097;50.862;4.696;2023-04-09T04:31:22;39.77;;;22.07;;
19869;SDS011;10097;50.862;4.696;2023-04-09T04:33:48;40.13;;;21.03;;
19869;SDS011;10097;50.862;4.696;2023-04-09T04:36:13;43.00;;;21.70;;
19869;SDS011;10097;50.862;4.696;2023-04-09T04:38:39;39.27;;;21.37;;
19869;SDS011;10097;50.862;4.696;2023-04-09T04:41:05;43.33;;;22.20;;
19869;SDS011;10097;50.862;4.696;2023-04-09T04:43:32;44.27;;;23.30;;
19869;SDS011;10097;50.862;4.696;2023-04-09T04:45:58;44.00;;;21.83;;
19869;SDS011;10097;50.862;4.696;2023-04-09T04:48:24;40.07;;;22.03;;
19869;SDS011;10097;50.862;4.696;2023-04-09T04:50:56;42.23;;;22.90;;
19869;SDS011;10097;50.862;4.696;2023-04-09T04:53:23;42.97;;;22.93;;
19869;SDS011;10097;50.862;4.696;2023-04-09T04:55:49;42.80;;;22.17;;
19869;SDS011;10097;50.862;4.696;2023-04-09T04:58:15;46.07;;;23.03;;
19869;SDS011;10097;50.862;4.696;2023-04-09T05:00:40;43.90;;;21.77;;
19869;SDS011;10097;50.862;4.696;2023-04-09T05:03:06;40.17;;;21.93;;
19869;SDS011;10097;50.862;4.696;2023-04-09T05:05:32;40.60;;;22.10;;
19869;SDS011;10097;50.862;4.696;2023-04-09T05:07:57;38.20;;;21.33;;
19869;SDS011;10097;50.862;4.696;2023-04-09T05:10:23;38.17;;;20.93;;
19869;SDS011;10097;50.862;4.696;2023-04-09T05:12:49;43.43;;;23.40;;
19869;SDS011;10097;50.862;4.696;2023-04-09T05:15:14;45.40;;;21.67;;
19869;SDS011;10097;50.862;4.696;2023-04-09T05:17:43;43.13;;;22.30;;
19869;SDS011;10097;50.862;4.696;2023-04-09T05:20:09;41.73;;;22.17;;
19869;SDS011;10097;50.862;4.696;2023-04-09T05:22:35;46.03;;;23.90;;
19869;SDS011;10097;50.862;4.696;2023-04-09T05:25:09;43.93;;;22.20;;
19869;SDS011;10097;50.862;4.696;2023-04-09T05:27:35;43.63;;;22.03;;
19869;SDS011;10097;50.862;4.696;2023-04-09T05:30:01;44.93;;;22.57;;
19869;SDS011;10097;50.862;4.696;2023-04-09T05:32:27;43.07;;;21.97;;
19869;SDS011;10097;50.862;4.696;2023-04-09T05:34:53;42.00;;;22.93;;
19869;SDS011;10097;50.862;4.696;2023-04-09T05:37:18;48.50;;;23.40;;
19869;SDS011;10097;50.862;4.696;2023-04-09T05:39:44;43.93;;;22.70;;
19869;SDS011;10097;50.862;4.696;2023-04-09T05:42:10;41.20;;;21.67;;
19869;SDS011;10097;50.862;4.696;2023-04-09T05:44:35;40.23;;;21.83;;
19869;SDS011;10097;50.862;4.696;2023-04-09T05:47:01;46.07;;;23.37;;
19869;SDS011;10097;50.862;4.696;2023-04-09T05:49:27;39.03;;;21.77;;
19869;SDS011;10097;50.862;4.696;2023-04-09T05:51:53;42.80;;;21.83;;
19869;SDS011;10097;50.862;4.696;2023-04-09T05:54:18;40.10;;;21.37;;
19869;SDS011;10097;50.862;4.696;2023-04-09T05:56:44;44.97;;;23.20;;
19869;SDS011;10097;50.862;4.696;2023-04-09T05:59:10;49.90;;;24.07;;
19869;SDS011;10097;50.862;4.696;2023-04-09T06:01:35;44.40;;;24.33;;
19869;SDS011;10097;50.862;4.696;2023-04-09T06:04:01;42.57;;;22.90;;
19869;SDS011;10097;50.862;4.696;2023-04-09T06:06:27;43.50;;;23.10;;
19869;SDS011;10097;50.862;4.696;2023-04-09T06:08:52;49.67;;;24.07;;
19869;SDS011;10097;50.862;4.696;2023-04-09T06:11:18;43.40;;;22.93;;
19869;SDS011;10097;50.862;4.696;2023-04-09T06:13:43;47.97;;;25.47;;
19869;SDS011;10097;50.862;4.696;2023-04-09T06:16:09;56.50;;;29.77;;
19869;SDS011;10097;50.862;4.696;2023-04-09T06:18:35;59.20;;;29.97;;
19869;SDS011;10097;50.862;4.696;2023-04-09T06:21:05;61.50;;;32.97;;
19869;SDS011;10097;50.862;4.696;2023-04-09T06:23:33;65.07;;;33.03;;
19869;SDS011;10097;50.862;4.696;2023-04-09T06:25:59;63.70;;;34.87;;
19869;SDS011;10097;50.862;4.696;2023-04-09T06:28:25;68.23;;;34.63;;
19869;SDS011;10097;50.862;4.696;2023-04-09T06:30:52;70.90;;;36.53;;
19869;SDS011;10097;50.862;4.696;2023-04-09T06:33:19;73.83;;;36.80;;
19869;SDS011;10097;50.862;4.696;2023-04-09T06:35:45;76.83;;;37.97;;
19869;SDS011;10097;50.862;4.696;2023-04-09T06:38:12;72.67;;;36.87;;
19869;SDS011;10097;50.862;4.696;2023-04-09T06:40:38;74.17;;;37.33;;
19869;SDS011;10097;50.862;4.696;2023-04-09T06:43:05;77.17;;;37.17;;
19869;SDS011;10097;50.862;4.696;2023-04-09T06:45:30;67.50;;;35.33;;
19869;SDS011;10097;50.862;4.696;2023-04-09T06:47:57;74.87;;;37.83;;
19869;SDS011;10097;50.862;4.696;2023-04-09T06:50:23;71.20;;;38.80;;
19869;SDS011;10097;50.862;4.696;2023-04-09T06:52:53;69.93;;;35.90;;
19869;SDS011;10097;50.862;4.696;2023-04-09T06:55:19;68.03;;;36.90;;
19869;SDS011;10097;50.862;4.696;2023-04-09T06:57:45;66.13;;;36.00;;
19869;SDS011;10097;50.862;4.696;2023-04-09T07:00:10;63.17;;;36.27;;
19869;SDS011;10097;50.862;4.696;2023-04-09T07:02:36;63.60;;;35.67;;
19869;SDS011;10097;50.862;4.696;2023-04-09T07:05:02;64.87;;;36.60;;
19869;SDS011;10097;50.862;4.696;2023-04-09T07:07:28;63.87;;;35.40;;
19869;SDS011;10097;50.862;4.696;2023-04-09T07:09:54;60.17;;;34.23;;
19869;SDS011;10097;50.862;4.696;2023-04-09T07:15:05;60.10;;;32.97;;
19869;SDS011;10097;50.862;4.696;2023-04-09T07:17:34;55.93;;;32.67;;
19869;SDS011;10097;50.862;4.696;2023-04-09T07:20:00;62.93;;;33.03;;
19869;SDS011;10097;50.862;4.696;2023-04-09T07:22:26;59.90;;;32.67;;
19869;SDS011;10097;50.862;4.696;2023-04-09T07:24:53;57.83;;;32.70;;
19869;SDS011;10097;50.862;4.696;2023-04-09T07:27:25;58.20;;;32.23;;
19869;SDS011;10097;50.862;4.696;2023-04-09T07:29:57;61.23;;;32.53;;
19869;SDS011;10097;50.862;4.696;2023-04-09T07:32:24;58.43;;;31.20;;
19869;SDS011;10097;50.862;4.696;2023-04-09T07:34:52;55.50;;;30.73;;
19869;SDS011;10097;50.862;4.696;2023-04-09T07:37:18;64.17;;;31.67;;
19869;SDS011;10097;50.862;4.696;2023-04-09T07:39:44;61.00;;;31.07;;
19869;SDS011;10097;50.862;4.696;2023-04-09T07:42:11;57.23;;;30.30;;
19869;SDS011;10097;50.862;4.696;2023-04-09T07:44:37;53.10;;;29.70;;
19869;SDS011;10097;50.862;4.696;2023-04-09T07:47:03;53.93;;;29.87;;
19869;SDS011;10097;50.862;4.696;2023-04-09T07:49:30;56.20;;;31.43;;
19869;SDS011;10097;50.862;4.696;2023-04-09T07:51:57;56.57;;;30.90;;
19869;SDS011;10097;50.862;4.696;2023-04-09T07:54:23;53.13;;;29.20;;
19869;SDS011;10097;50.862;4.696;2023-04-09T07:56:49;57.77;;;31.30;;
19869;SDS011;10097;50.862;4.696;2023-04-09T07:59:15;57.70;;;30.90;;
19869;SDS011;10097;50.862;4.696;2023-04-09T08:01:41;49.60;;;27.43;;
19869;SDS011;10097;50.862;4.696;2023-04-09T08:04:08;52.83;;;28.70;;
19869;SDS011;10097;50.862;4.696;2023-04-09T08:06:34;52.03;;;29.03;;
19869;SDS011;10097;50.862;4.696;2023-04-09T08:09:03;49.77;;;28.87;;
19869;SDS011;10097;50.862;4.696;2023-04-09T08:11:29;48.27;;;26.93;;
19869;SDS011;10097;50.862;4.696;2023-04-09T08:13:54;49.57;;;28.10;;
19869;SDS011;10097;50.862;4.696;2023-04-09T08:16:21;49.90;;;27.87;;
19869;SDS011;10097;50.862;4.696;2023-04-09T08:18:51;49.57;;;26.93;;
19869;SDS011;10097;50.862;4.696;2023-04-09T08:21:18;51.63;;;27.10;;
19869;SDS011;10097;50.862;4.696;2023-04-09T08:23:43;46.10;;;26.23;;
19869;SDS011;10097;50.862;4.696;2023-04-09T08:26:09;49.37;;;26.57;;
19869;SDS011;10097;50.862;4.696;2023-04-09T08:28:35;50.73;;;25.40;;
19869;SDS011;10097;50.862;4.696;2023-04-09T08:31:00;48.00;;;27.10;;
19869;SDS011;10097;50.862;4.696;2023-04-09T08:33:26;45.90;;;25.60;;
19869;SDS011;10097;50.862;4.696;2023-04-09T08:35:52;44.97;;;25.47;;
19869;SDS011;10097;50.862;4.696;2023-04-09T08:38:17;45.03;;;24.80;;
19869;SDS011;10097;50.862;4.696;2023-04-09T08:40:43;42.30;;;24.97;;
19869;SDS011;10097;50.862;4.696;2023-04-09T08:43:09;42.57;;;24.97;;
19869;SDS011;10097;50.862;4.696;2023-04-09T08:45:39;39.57;;;23.93;;
19869;SDS011;10097;50.862;4.696;2023-04-09T08:48:08;45.37;;;24.83;;
19869;SDS011;10097;50.862;4.696;2023-04-09T08:50:37;43.20;;;24.03;;
19869;SDS011;10097;50.862;4.696;2023-04-09T08:53:03;42.30;;;23.90;;
19869;SDS011;10097;50.862;4.696;2023-04-09T08:55:31;41.33;;;22.67;;
19869;SDS011;10097;50.862;4.696;2023-04-09T08:58:04;38.67;;;22.47;;
19869;SDS011;10097;50.862;4.696;2023-04-09T09:00:34;40.03;;;22.50;;
19869;SDS011;10097;50.862;4.696;2023-04-09T09:05:37;41.47;;;23.63;;
19869;SDS011;10097;50.862;4.696;2023-04-09T09:08:10;44.60;;;24.77;;
19869;SDS011;10097;50.862;4.696;2023-04-09T09:10:44;43.03;;;23.37;;
19869;SDS011;10097;50.862;4.696;2023-04-09T09:15:45;42.10;;;24.30;;
19869;SDS011;10097;50.862;4.696;2023-04-09T09:18:14;43.17;;;24.33;;
19869;SDS011;10097;50.862;4.696;2023-04-09T09:20:41;43.37;;;24.87;;
19869;SDS011;10097;50.862;4.696;2023-04-09T09:23:06;44.17;;;24.37;;
19869;SDS011;10097;50.862;4.696;2023-04-09T09:25:39;41.53;;;23.47;;
19869;SDS011;10097;50.862;4.696;2023-04-09T09:28:07;42.90;;;22.70;;
19869;SDS011;10097;50.862;4.696;2023-04-09T09:30:34;40.07;;;22.53;;
19869;SDS011;10097;50.862;4.696;2023-04-09T09:33:09;43.73;;;22.20;;
19869;SDS011;10097;50.862;4.696;2023-04-09T09:35:51;37.97;;;22.47;;
19869;SDS011;10097;50.862;4.696;2023-04-09T09:38:18;38.57;;;21.60;;
19869;SDS011;10097;50.862;4.696;2023-04-09T09:40:45;37.40;;;22.13;;
19869;SDS011;10097;50.862;4.696;2023-04-09T09:43:11;36.27;;;21.73;;
19869;SDS011;10097;50.862;4.696;2023-04-09T09:45:38;34.40;;;20.90;;
19869;SDS011;10097;50.862;4.696;2023-04-09T09:48:05;36.60;;;21.80;;
19869;SDS011;10097;50.862;4.696;2023-04-09T09:50:33;33.25;;;19.50;;
19869;SDS011;10097;50.862;4.696;2023-04-09T09:53:05;36.00;;;20.58;;
19869;SDS011;10097;50.862;4.696;2023-04-09T09:55:32;32.17;;;20.17;;
19869;SDS011;10097;50.862;4.696;2023-04-09T09:58:11;35.83;;;20.73;;
19869;SDS011;10097;50.862;4.696;2023-04-09T10:00:41;35.50;;;20.60;;
19869;SDS011;10097;50.862;4.696;2023-04-09T10:03:13;37.75;;;20.63;;
19869;SDS011;10097;50.862;4.696;2023-04-09T10:05:43;35.63;;;19.67;;
19869;SDS011;10097;50.862;4.696;2023-04-09T10:08:09;33.35;;;20.20;;
19869;SDS011;10097;50.862;4.696;2023-04-09T10:10:37;33.17;;;19.30;;
19869;SDS011;10097;50.862;4.696;2023-04-09T10:13:06;32.20;;;19.23;;
19869;SDS011;10097;50.862;4.696;2023-04-09T10:15:36;32.90;;;19.88;;
19869;SDS011;10097;50.862;4.696;2023-04-09T10:18:02;34.58;;;20.10;;
19869;SDS011;10097;50.862;4.696;2023-04-09T10:20:31;30.83;;;18.98;;
19869;SDS011;10097;50.862;4.696;2023-04-09T10:23:05;32.15;;;19.48;;
19869;SDS011;10097;50.862;4.696;2023-04-09T10:25:39;32.97;;;20.08;;
19869;SDS011;10097;50.862;4.696;2023-04-09T10:28:13;34.17;;;20.90;;
19869;SDS011;10097;50.862;4.696;2023-04-09T10:30:45;31.77;;;19.23;;
19869;SDS011;10097;50.862;4.696;2023-04-09T10:33:14;31.00;;;18.83;;
19869;SDS011;10097;50.862;4.696;2023-04-09T10:35:46;35.85;;;20.75;;
19869;SDS011;10097;50.862;4.696;2023-04-09T10:38:13;28.08;;;18.38;;
19869;SDS011;10097;50.862;4.696;2023-04-09T10:40:51;31.08;;;18.48;;
19869;SDS011;10097;50.862;4.696;2023-04-09T10:43:20;30.58;;;18.30;;
19869;SDS011;10097;50.862;4.696;2023-04-09T10:45:46;27.50;;;18.15;;
19869;SDS011;10097;50.862;4.696;2023-04-09T10:48:18;29.33;;;17.83;;
19869;SDS011;10097;50.862;4.696;2023-04-09T10:50:46;28.52;;;17.88;;
19869;SDS011;10097;50.862;4.696;2023-04-09T10:53:23;27.38;;;17.20;;
19869;SDS011;10097;50.862;4.696;2023-04-09T10:55:50;28.88;;;17.60;;
19869;SDS011;10097;50.862;4.696;2023-04-09T10:58:17;25.65;;;16.55;;
19869;SDS011;10097;50.862;4.696;2023-04-09T11:00:43;27.80;;;17.27;;
19869;SDS011;10097;50.862;4.696;2023-04-09T11:05:57;26.92;;;16.67;;
19869;SDS011;10097;50.862;4.696;2023-04-09T11:08:28;27.58;;;16.65;;
19869;SDS011;10097;50.862;4.696;2023-04-09T11:10:56;33.15;;;16.13;;
19869;SDS011;10097;50.862;4.696;2023-04-09T11:13:23;22.48;;;14.75;;
19869;SDS011;10097;50.862;4.696;2023-04-09T11:15:49;25.83;;;15.55;;
19869;SDS011;10097;50.862;4.696;2023-04-09T11:18:21;25.13;;;15.60;;
19869;SDS011;10097;50.862;4.696;2023-04-09T11:20:48;24.42;;;15.43;;
19869;SDS011;10097;50.862;4.696;2023-04-09T11:23:14;24.52;;;15.63;;
19869;SDS011;10097;50.862;4.696;2023-04-09T11:25:41;21.40;;;14.15;;
19869;SDS011;10097;50.862;4.696;2023-04-09T11:28:07;26.20;;;15.13;;
19869;SDS011;10097;50.862;4.696;2023-04-09T11:30:33;24.30;;;15.15;;
19869;SDS011;10097;50.862;4.696;2023-04-09T11:32:59;22.27;;;15.20;;
19869;SDS011;10097;50.862;4.696;2023-04-09T11:35:26;24.10;;;14.10;;
19869;SDS011;10097;50.862;4.696;2023-04-09T11:37:52;23.45;;;14.25;;
19869;SDS011;10097;50.862;4.696;2023-04-09T11:40:22;23.13;;;14.20;;
19869;SDS011;10097;50.862;4.696;2023-04-09T11:42:49;22.23;;;13.40;;
19869;SDS011;10097;50.862;4.696;2023-04-09T11:45:16;20.40;;;12.75;;
19869;SDS011;10097;50.862;4.696;2023-04-09T11:47:43;23.42;;;14.98;;
19869;SDS011;10097;50.862;4.696;2023-04-09T11:50:10;25.05;;;14.93;;
19869;SDS011;10097;50.862;4.696;2023-04-09T11:52:37;25.75;;;15.55;;
19869;SDS011;10097;50.862;4.696;2023-04-09T11:55:05;25.45;;;15.30;;
19869;SDS011;10097;50.862;4.696;2023-04-09T11:57:39;24.60;;;13.73;;
19869;SDS011;10097;50.862;4.696;2023-04-09T12:00:09;21.95;;;14.10;;
19869;SDS011;10097;50.862;4.696;2023-04-09T12:02:38;22.13;;;13.52;;
19869;SDS011;10097;50.862;4.696;2023-04-09T12:05:12;24.50;;;13.88;;
19869;SDS011;10097;50.862;4.696;2023-04-09T12:07:57;23.63;;;13.20;;
19869;SDS011;10097;50.862;4.696;2023-04-09T12:10:28;22.15;;;13.15;;
19869;SDS011;10097;50.862;4.696;2023-04-09T12:13:02;20.65;;;12.23;;
19869;SDS011;10097;50.862;4.696;2023-04-09T12:15:38;23.85;;;13.45;;
19869;SDS011;10097;50.862;4.696;2023-04-09T12:18:07;19.75;;;12.30;;
19869;SDS011;10097;50.862;4.696;2023-04-09T12:20:38;21.95;;;12.68;;
19869;SDS011;10097;50.862;4.696;2023-04-09T12:23:06;21.38;;;13.02;;
19869;SDS011;10097;50.862;4.696;2023-04-09T12:25:33;21.48;;;11.93;;
19869;SDS011;10097;50.862;4.696;2023-04-09T12:28:05;20.73;;;11.93;;
19869;SDS011;10097;50.862;4.696;2023-04-09T12:30:32;18.92;;;10.93;;
19869;SDS011;10097;50.862;4.696;2023-04-09T12:32:59;18.88;;;11.65;;
19869;SDS011;10097;50.862;4.696;2023-04-09T12:35:27;18.90;;;10.55;;
19869;SDS011;10097;50.862;4.696;2023-04-09T12:37:53;19.67;;;11.32;;
19869;SDS011;10097;50.862;4.696;2023-04-09T12:40:19;17.27;;;10.52;;
19869;SDS011;10097;50.862;4.696;2023-04-09T12:42:45;19.70;;;11.48;;
19869;SDS011;10097;50.862;4.696;2023-04-09T12:45:12;20.45;;;11.77;;
19869;SDS011;10097;50.862;4.696;2023-04-09T12:47:38;17.95;;;10.65;;
19869;SDS011;10097;50.862;4.696;2023-04-09T12:50:05;21.55;;;10.70;;
19869;SDS011;10097;50.862;4.696;2023-04-09T12:52:32;19.63;;;10.77;;
19869;SDS011;10097;50.862;4.696;2023-04-09T12:55:01;15.77;;;9.02;;
19869;SDS011;10097;50.862;4.696;2023-04-09T12:57:28;18.73;;;10.95;;
19869;SDS011;10097;50.862;4.696;2023-04-09T12:59:54;17.40;;;10.55;;
19869;SDS011;10097;50.862;4.696;2023-04-09T13:02:20;15.02;;;9.13;;
19869;SDS011;10097;50.862;4.696;2023-04-09T13:04:47;19.52;;;9.77;;
19869;SDS011;10097;50.862;4.696;2023-04-09T13:07:14;18.20;;;10.13;;
19869;SDS011;10097;50.862;4.696;2023-04-09T13:09:41;15.75;;;9.13;;
19869;SDS011;10097;50.862;4.696;2023-04-09T13:12:07;17.00;;;9.57;;
19869;SDS011;10097;50.862;4.696;2023-04-09T13:14:33;18.92;;;9.43;;
19869;SDS011;10097;50.862;4.696;2023-04-09T13:16:58;15.85;;;8.35;;
19869;SDS011;10097;50.862;4.696;2023-04-09T13:19:24;15.18;;;8.40;;
19869;SDS011;10097;50.862;4.696;2023-04-09T13:21:50;14.98;;;8.10;;
19869;SDS011;10097;50.862;4.696;2023-04-09T13:24:15;13.27;;;7.32;;
19869;SDS011;10097;50.862;4.696;2023-04-09T13:26:41;13.63;;;7.22;;
19869;SDS011;10097;50.862;4.696;2023-04-09T13:29:09;12.32;;;7.07;;
19869;SDS011;10097;50.862;4.696;2023-04-09T13:31:35;12.65;;;6.93;;
19869;SDS011;10097;50.862;4.696;2023-04-09T13:34:01;13.40;;;7.35;;
19869;SDS011;10097;50.862;4.696;2023-04-09T13:36:27;12.15;;;6.68;;
19869;SDS011;10097;50.862;4.696;2023-04-09T13:38:53;13.90;;;7.93;;
19869;SDS011;10097;50.862;4.696;2023-04-09T13:41:20;13.57;;;7.38;;
19869;SDS011;10097;50.862;4.696;2023-04-09T13:43:51;14.63;;;7.53;;
19869;SDS011;10097;50.862;4.696;2023-04-09T13:46:17;13.15;;;6.60;;
19869;SDS011;10097;50.862;4.696;2023-04-09T13:48:43;15.13;;;6.70;;
19869;SDS011;10097;50.862;4.696;2023-04-09T13:51:08;10.60;;;6.18;;
19869;SDS011;10097;50.862;4.696;2023-04-09T13:53:34;11.43;;;6.00;;
19869;SDS011;10097;50.862;4.696;2023-04-09T13:56:00;11.30;;;6.03;;
19869;SDS011;10097;50.862;4.696;2023-04-09T13:58:26;10.98;;;5.93;;
19869;SDS011;10097;50.862;4.696;2023-04-09T14:00:51;12.38;;;6.65;;
19869;SDS011;10097;50.862;4.696;2023-04-09T14:03:17;11.00;;;5.80;;
19869;SDS011;10097;50.862;4.696;2023-04-09T14:05:43;11.07;;;5.88;;
19869;SDS011;10097;50.862;4.696;2023-04-09T14:08:08;10.48;;;5.38;;
19869;SDS011;10097;50.862;4.696;2023-04-09T14:10:34;12.60;;;6.57;;
19869;SDS011;10097;50.862;4.696;2023-04-09T14:13:00;11.27;;;6.13;;
19869;SDS011;10097;50.862;4.696;2023-04-09T14:15:30;12.98;;;5.78;;
19869;SDS011;10097;50.862;4.696;2023-04-09T14:17:56;13.88;;;6.90;;
19869;SDS011;10097;50.862;4.696;2023-04-09T14:20:22;11.10;;;5.82;;
19869;SDS011;10097;50.862;4.696;2023-04-09T14:22:48;13.40;;;6.20;;
19869;SDS011;10097;50.862;4.696;2023-04-09T14:25:14;9.00;;;4.57;;
19869;SDS011;10097;50.862;4.696;2023-04-09T14:27:40;11.27;;;5.55;;
19869;SDS011;10097;50.862;4.696;2023-04-09T14:30:07;11.43;;;6.10;;
19869;SDS011;10097;50.862;4.696;2023-04-09T14:32:33;11.43;;;5.38;;
19869;SDS011;10097;50.862;4.696;2023-04-09T14:34:59;9.73;;;5.25;;
19869;SDS011;10097;50.862;4.696;2023-04-09T14:37:26;13.07;;;5.70;;
19869;SDS011;10097;50.862;4.696;2023-04-09T14:39:51;10.20;;;5.57;;
19869;SDS011;10097;50.862;4.696;2023-04-09T14:42:17;11.60;;;4.82;;
19869;SDS011;10097;50.862;4.696;2023-04-09T14:44:45;10.23;;;4.57;;